In Rescue
 
Open Full Screen Window  High Contrast Mode
Wind Gusting 00 knots
12
September 19, 2019 2:30 PM PDT
Weather Information
Wind Direction
  330 °
Wind Speed
  12 kt (14 mph)
Wind Gust
  00 kt (0 mph)
Altimeter
29.96 in
Visibility
10 SM
Temperature
19° C
66° F
Dewpoint
12° C
54° F
Humidity
64%
1hr Rain Fall
00.00 in.
24hr Rain Fall
00.00 in.
Sky Condition
Clear
VFR

METAR KHAF 192130Z AUTO 33012KT 10SM CLR 19/12 A2996 RMK AO2

FAA Disclaimer: The data displayed is for advisory purposes only and is not to be used for flight planning or operations.